Time;durP1;ratioP1;P1;durP2;ratioP2;P2;SDS_P1;SDS_P2;PMS_P1;PMS_P2;Temp;Humidity;BMP_temperature;BMP_pressure;BME280_temperature;BME280_humidity;BME280_pressure;Samples;Min_cycle;Max_cycle;Signal;HPM_P1;HPM_P2
2022/12/18 00:01:32;;;;;;;70.63;39.40;;;-5.20;99.90;-6.50;101633;;;;580498;243;24082;-72
2022/12/18 00:03:57;;;;;;;69.23;39.93;;;-5.20;99.90;-6.50;101631;;;;575040;248;24085;-73
2022/12/18 00:06:29;;;;;;;67.77;37.80;;;-5.20;99.90;-6.50;101644;;;;578159;248;24130;-72
2022/12/18 00:08:53;;;;;;;67.97;39.03;;;-5.20;99.90;-6.50;101643;;;;579302;243;24068;-71
2022/12/18 00:11:25;;;;;;;64.70;37.30;;;-5.20;99.90;-6.50;101641;;;;569993;248;24162;-74
2022/12/18 00:13:50;;;;;;;65.30;37.83;;;-5.20;99.90;-6.50;101654;;;;569926;248;24171;-78
2022/12/18 00:16:22;;;;;;;65.70;36.13;;;-5.30;99.90;-6.60;101646;;;;580980;243;24111;-74
2022/12/18 00:18:47;;;;;;;59.43;37.23;;;-5.30;99.90;-6.60;101652;;;;568737;249;24105;-74
2022/12/18 00:21:15;;;;;;;65.80;38.80;;;-5.30;99.90;-6.60;101645;;;;567756;248;24101;-75
2022/12/18 00:23:46;;;;;;;67.83;39.00;;;-5.30;99.90;-6.60;101647;;;;578999;248;24135;-72
2022/12/18 00:26:15;;;;;;;65.00;37.87;;;-5.40;99.90;-6.70;101647;;;;580138;243;24080;-74
2022/12/18 00:28:45;;;;;;;65.33;36.53;;;-5.40;99.90;-6.80;101652;;;;580432;243;24073;-73
2022/12/18 00:31:11;;;;;;;59.50;34.93;;;-5.50;99.90;-6.80;101654;;;;589032;243;24100;-72
2022/12/18 00:33:43;;;;;;;59.30;33.53;;;-5.60;99.90;-6.90;101658;;;;570539;248;24224;-72
2022/12/18 00:36:08;;;;;;;60.27;35.93;;;-5.60;99.90;-6.90;101652;;;;569939;248;24112;-73
2022/12/18 00:38:36;;;;;;;61.57;34.57;;;-5.60;99.90;-7.00;101656;;;;570198;248;24082;-72
2022/12/18 00:41:03;;;;;;;56.87;34.03;;;-5.70;99.90;-7.10;101662;;;;581731;243;24048;-72
2022/12/18 00:43:34;;;;;;;63.60;34.43;;;-5.80;99.90;-7.10;101661;;;;581642;243;24041;-72
2022/12/18 00:46:05;;;;;;;53.90;31.67;;;-5.80;99.90;-7.10;101661;;;;570926;248;24153;-72
2022/12/18 00:48:30;;;;;;;56.53;31.83;;;-5.90;99.90;-7.20;101666;;;;571028;248;24093;-70
2022/12/18 00:50:59;;;;;;;50.13;29.03;;;-5.90;99.90;-7.20;101666;;;;581442;243;24115;-72
2022/12/18 00:53:27;;;;;;;52.90;28.47;;;-5.90;99.90;-7.20;101659;;;;581294;243;24055;-70
2022/12/18 00:55:57;;;;;;;50.93;29.17;;;-6.00;99.90;-7.30;101660;;;;570271;248;24069;-71
2022/12/18 00:58:25;;;;;;;57.23;29.40;;;-6.00;99.90;-7.30;101672;;;;570989;248;24117;-73
2022/12/18 01:00:53;;;;;;;50.27;28.40;;;-6.00;99.90;-7.30;101664;;;;571273;248;24091;-74
2022/12/18 01:03:21;;;;;;;46.90;27.97;;;-6.00;99.90;-7.30;101664;;;;570986;248;24142;-77
2022/12/18 01:05:49;;;;;;;44.93;27.57;;;-6.00;99.90;-7.30;101672;;;;570353;248;24151;-80
2022/12/18 01:08:17;;;;;;;48.53;28.37;;;-6.00;99.90;-7.20;101670;;;;570703;248;24131;-79
2022/12/18 01:10:45;;;;;;;50.00;29.80;;;-6.00;99.90;-7.20;101669;;;;570447;248;24124;-71
2022/12/18 01:13:13;;;;;;;52.43;27.87;;;-5.90;99.90;-7.20;101684;;;;570434;248;24108;-72
2022/12/18 01:15:41;;;;;;;50.03;28.30;;;-5.90;99.90;-7.20;101677;;;;570504;248;24115;-73
2022/12/18 01:18:09;;;;;;;49.47;28.13;;;-5.90;99.90;-7.20;101682;;;;569903;248;24159;-74
2022/12/18 01:20:38;;;;;;;52.63;29.83;;;-5.90;99.90;-7.20;101687;;;;569651;248;25129;-72
2022/12/18 01:23:09;;;;;;;51.57;28.77;;;-5.90;99.90;-7.20;101682;;;;569069;249;24149;-72
2022/12/18 01:25:35;;;;;;;51.10;29.93;;;-5.90;99.90;-7.10;101683;;;;570114;248;25164;-71
2022/12/18 01:28:02;;;;;;;53.07;30.13;;;-5.80;99.90;-7.10;101684;;;;570941;248;24155;-72
2022/12/18 01:30:30;;;;;;;66.12;32.78;;;-5.80;99.90;-7.10;101694;;;;564518;249;35331;-71
2022/12/18 01:32:58;;;;;;;62.70;31.20;;;-5.80;99.90;-7.00;101689;;;;570443;248;24147;-78
2022/12/18 01:35:26;;;;;;;67.67;32.73;;;-5.70;99.90;-7.00;101696;;;;570726;248;24133;-81
2022/12/18 01:37:57;;;;;;;66.17;32.80;;;-5.70;99.90;-6.90;101692;;;;581790;243;24066;-73
2022/12/18 01:40:29;;;;;;;61.17;32.70;;;-5.60;99.90;-6.80;101697;;;;582086;243;24036;-76
2022/12/18 01:42:53;;;;;;;62.90;33.97;;;-5.50;99.90;-6.60;101689;;;;571365;248;24148;-71
2022/12/18 01:45:27;;;;;;;63.30;34.23;;;-5.40;99.90;-6.50;101699;;;;579959;248;24184;-72
2022/12/18 01:47:54;;;;;;;69.37;35.57;;;-5.30;99.90;-6.50;101695;;;;574250;248;24104;-71
2022/12/18 01:50:34;;;;;;;68.33;34.43;;;-5.20;99.90;-6.40;101694;;;;575325;249;24109;-72
2022/12/18 01:53:15;;;;;;;79.00;34.60;;;-5.10;99.90;-6.30;101690;;;;578447;245;24077;-72
2022/12/18 01:55:49;;;;;;;72.50;36.40;;;-5.00;99.90;-6.10;101683;;;;578294;245;24080;-72
2022/12/18 01:58:20;;;;;;;69.40;37.33;;;-4.90;99.90;-6.00;101691;;;;577852;245;24067;-71
2022/12/18 02:00:51;;;;;;;73.90;37.33;;;-4.80;99.90;-5.90;101697;;;;574189;245;24046;-72
2022/12/18 02:03:16;;;;;;;77.37;35.83;;;-4.70;99.90;-5.70;101700;;;;586480;245;24072;-71
2022/12/18 02:05:46;;;;;;;75.50;37.30;;;-4.60;99.90;-5.60;101706;;;;586408;245;24075;-71
2022/12/18 02:08:24;;;;;;;73.53;36.97;;;-4.30;99.90;-5.50;101709;;;;576750;245;24065;-71
2022/12/18 02:11:19;;;;;;;73.53;36.57;;;-4.40;99.90;-5.40;101705;;;;577205;245;24063;-71
2022/12/18 02:14:31;;;;;;;75.10;39.03;;;-4.20;99.90;-5.30;101707;;;;584637;245;24066;-71
2022/12/18 02:17:23;;;;;;;76.07;36.93;;;-4.20;99.90;-5.30;101720;;;;573375;245;24078;-71
2022/12/18 02:20:22;;;;;;;76.28;37.70;;;-4.10;99.90;-5.20;101723;;;;560404;245;46169;-71
2022/12/18 02:23:14;;;;;;;74.90;34.67;;;-4.00;99.90;-5.10;101715;;;;577025;245;24095;-71
2022/12/18 02:26:18;;;;;;;63.20;31.83;;;-3.90;99.90;-5.00;101715;;;;576606;245;24088;-71
2022/12/18 02:28:47;;;;;;;58.77;32.90;;;-3.80;99.90;-4.90;101715;;;;573165;245;24078;-72
2022/12/18 02:31:16;;;;;;;61.43;34.27;;;-3.70;99.90;-4.80;101717;;;;585256;245;24076;-71
2022/12/18 02:33:46;;;;;;;57.90;32.27;;;-3.70;99.90;-4.80;101729;;;;573025;245;24062;-71
2022/12/18 02:36:18;;;;;;;57.60;32.53;;;-3.60;99.90;-4.80;101729;;;;579856;243;24052;-73
2022/12/18 02:38:43;;;;;;;56.83;31.30;;;-3.50;99.90;-4.70;101729;;;;576529;249;24103;-70
2022/12/18 02:41:12;;;;;;;59.83;32.67;;;-3.60;99.90;-4.70;101735;;;;579802;243;26249;-70
2022/12/18 02:43:41;;;;;;;58.47;33.00;;;-3.50;99.90;-4.70;101735;;;;580019;243;24089;-70
2022/12/18 02:46:21;;;;;;;66.23;36.23;;;-3.50;99.90;-4.70;101743;;;;568741;248;24096;-71
2022/12/18 02:48:49;;;;;;;65.03;36.20;;;-3.50;99.90;-4.70;101742;;;;567211;249;24105;-70
2022/12/18 02:51:26;;;;;;;66.53;35.67;;;-3.50;99.90;-4.70;101738;;;;579820;243;24055;-71
2022/12/18 02:53:54;;;;;;;64.63;33.87;;;-3.60;99.90;-4.70;101733;;;;578640;243;24064;-71
2022/12/18 02:56:30;;;;;;;56.60;32.83;;;-3.60;99.90;-4.70;101735;;;;569347;248;26573;-71
2022/12/18 02:59:16;;;;;;;56.03;30.57;;;-3.60;99.90;-4.70;101743;;;;570707;248;24099;-71
2022/12/18 03:01:48;;;;;;;54.03;30.30;;;-3.60;99.90;-4.70;101753;;;;581428;243;24085;-72
2022/12/18 03:04:21;;;;;;;52.70;29.60;;;-3.50;99.90;-4.70;101747;;;;571692;246;24114;-81
2022/12/18 03:06:50;;;;;;;46.33;29.37;;;-3.50;99.90;-4.60;101760;;;;576548;248;24153;-81
2022/12/18 03:09:22;;;;;;;57.27;30.93;;;-3.50;99.90;-4.60;101742;;;;570274;248;24139;-80
2022/12/18 03:14:45;;;;;;;50.73;27.47;;;-3.50;99.90;-4.60;101751;;;;571898;246;24086;-81
2022/12/18 03:17:13;;;;;;;46.83;26.57;;;-3.50;99.90;-4.60;101745;;;;584506;246;24140;-80
2022/12/18 03:19:42;;;;;;;46.03;26.50;;;-3.50;99.90;-4.70;101752;;;;576363;245;24102;-71
2022/12/18 03:22:11;;;;;;;45.83;27.10;;;-3.50;99.90;-4.70;101762;;;;575414;245;24067;-70
2022/12/18 03:24:39;;;;;;;39.50;25.33;;;-3.50;99.90;-4.70;101757;;;;569537;248;24093;-71
2022/12/18 03:27:11;;;;;;;44.60;24.33;;;-3.50;99.90;-4.60;101754;;;;569703;248;24106;-71
2022/12/18 03:29:50;;;;;;;37.23;21.77;;;-3.50;99.90;-4.60;101760;;;;570273;248;24084;-74
2022/12/18 03:32:24;;;;;;;37.57;23.53;;;-3.40;99.90;-4.70;101762;;;;580943;243;24059;-71
2022/12/18 03:34:52;;;;;;;38.77;24.07;;;-3.50;99.90;-4.70;101773;;;;589397;243;24095;-71
2022/12/18 03:37:20;;;;;;;37.43;23.17;;;-3.50;99.90;-4.70;101769;;;;580271;243;24068;-71
2022/12/18 03:39:48;;;;;;;34.50;21.53;;;-3.50;99.90;-4.70;101779;;;;589865;243;24019;-74
2022/12/18 03:42:48;;;;;;;35.17;21.40;;;-3.50;99.90;-4.70;101776;;;;580860;243;24053;-70
2022/12/18 03:45:28;;;;;;;35.77;21.53;;;-3.50;99.90;-4.70;101777;;;;570054;248;24103;-71
2022/12/18 03:48:07;;;;;;;33.33;20.97;;;-3.50;99.90;-4.70;101783;;;;578796;248;24172;-75
2022/12/18 03:50:50;;;;;;;34.23;20.93;;;-3.50;99.90;-4.80;101793;;;;577843;248;24177;-74
2022/12/18 03:53:23;;;;;;;35.23;21.67;;;-3.60;99.90;-4.80;101784;;;;570325;248;24134;-70
2022/12/18 03:55:53;;;;;;;30.80;19.77;;;-3.60;99.90;-4.90;101790;;;;580327;243;24068;-71
2022/12/18 03:58:21;;;;;;;28.80;18.43;;;-3.70;99.90;-4.90;101795;;;;569205;249;24102;-71
2022/12/18 04:00:50;;;;;;;35.83;20.87;;;-3.70;99.90;-5.00;101796;;;;581244;243;24068;-72
2022/12/18 04:03:19;;;;;;;34.27;19.53;;;-3.80;99.90;-5.00;101797;;;;581084;243;24076;-78
2022/12/18 04:05:48;;;;;;;28.63;19.63;;;-3.80;99.90;-5.00;101800;;;;571068;248;24194;-71
2022/12/18 04:08:15;;;;;;;31.20;20.60;;;-3.90;99.90;-5.10;101802;;;;580959;243;24095;-83
2022/12/18 04:10:43;;;;;;;31.20;20.10;;;-3.90;99.90;-5.10;101806;;;;581328;243;24090;-71
2022/12/18 04:13:11;;;;;;;30.27;19.83;;;-3.90;99.90;-5.20;101801;;;;570802;247;24232;-71
2022/12/18 04:15:42;;;;;;;29.23;19.53;;;-3.90;99.90;-5.20;101805;;;;570608;248;24071;-71
2022/12/18 04:18:10;;;;;;;29.37;18.53;;;-4.00;99.90;-5.20;101809;;;;574494;248;24063;-71
2022/12/18 04:20:42;;;;;;;32.27;18.67;;;-4.00;99.90;-5.20;101810;;;;581811;243;24161;-78
2022/12/18 04:23:06;;;;;;;33.95;19.25;;;-4.00;99.90;-5.30;101811;;;;566196;248;35273;-80
2022/12/18 04:25:34;;;;;;;29.17;17.53;;;-4.10;99.90;-5.30;101808;;;;570644;248;24106;-71
2022/12/18 04:28:02;;;;;;;27.40;18.80;;;-4.10;99.90;-5.30;101806;;;;570045;248;24080;-71
2022/12/18 04:30:30;;;;;;;30.10;18.40;;;-4.10;99.90;-5.30;101816;;;;570080;248;24097;-73
2022/12/18 04:32:58;;;;;;;28.77;19.50;;;-4.10;99.90;-5.30;101810;;;;569898;248;24093;-71
2022/12/18 04:35:26;;;;;;;32.77;19.47;;;-4.10;99.90;-5.40;101803;;;;569848;248;24130;-71
2022/12/18 04:37:54;;;;;;;28.37;18.60;;;-4.10;99.90;-5.40;101812;;;;569877;248;24123;-71
2022/12/18 04:40:22;;;;;;;31.93;20.67;;;-4.20;99.90;-5.40;101811;;;;570006;248;24077;-72
2022/12/18 04:42:50;;;;;;;27.80;18.83;;;-4.20;99.90;-5.40;101812;;;;569783;248;24092;-71
2022/12/18 04:45:17;;;;;;;29.33;18.23;;;-4.20;99.90;-5.40;101821;;;;580358;243;24078;-72
2022/12/18 04:47:45;;;;;;;26.40;18.23;;;-4.20;99.90;-5.40;101820;;;;580246;243;24103;-72
2022/12/18 04:50:13;;;;;;;26.13;18.07;;;-4.20;99.90;-5.40;101828;;;;569760;248;24093;-73
2022/12/18 04:52:41;;;;;;;27.67;18.80;;;-4.20;99.90;-5.40;101823;;;;569475;248;24091;-72
2022/12/18 04:55:09;;;;;;;31.87;19.67;;;-4.20;99.90;-5.40;101831;;;;569335;248;24161;-73
2022/12/18 04:57:37;;;;;;;27.27;19.17;;;-4.30;99.90;-5.50;101824;;;;569547;248;24195;-71
2022/12/18 05:00:10;;;;;;;31.43;20.10;;;-4.30;99.90;-5.50;101827;;;;569396;248;24120;-72
2022/12/18 05:02:34;;;;;;;28.53;18.67;;;-4.30;99.90;-5.40;101833;;;;575136;248;24102;-71
2022/12/18 05:05:05;;;;;;;33.43;20.13;;;-4.20;99.90;-5.50;101836;;;;568298;249;24109;-71
2022/12/18 05:07:30;;;;;;;30.17;18.33;;;-4.20;99.90;-5.50;101830;;;;569428;248;24162;-71
2022/12/18 05:09:58;;;;;;;30.50;18.77;;;-4.30;99.90;-5.50;101832;;;;569446;248;24130;-71
2022/12/18 05:12:26;;;;;;;29.13;19.27;;;-4.30;99.90;-5.50;101840;;;;569660;248;24132;-71
2022/12/18 05:14:54;;;;;;;30.27;18.23;;;-4.30;99.90;-5.60;101844;;;;580071;243;24057;-71
2022/12/18 05:17:21;;;;;;;25.47;18.27;;;-4.30;99.90;-5.60;101844;;;;579940;243;24064;-71
2022/12/18 05:19:49;;;;;;;27.47;17.90;;;-4.40;99.90;-5.60;101842;;;;569487;248;24088;-71
2022/12/18 05:22:17;;;;;;;25.00;17.57;;;-4.40;99.90;-5.60;101844;;;;569268;248;24088;-71
2022/12/18 05:24:46;;;;;;;24.63;17.03;;;-4.40;99.90;-5.60;101847;;;;570556;247;24086;-71
2022/12/18 05:27:14;;;;;;;26.50;18.00;;;-4.40;99.90;-5.70;101850;;;;570604;248;24154;-70
2022/12/18 05:29:42;;;;;;;28.17;17.73;;;-4.40;99.90;-5.70;101854;;;;570447;248;24084;-73
2022/12/18 05:32:11;;;;;;;28.50;18.07;;;-4.40;99.90;-5.60;101856;;;;570204;248;24083;-72
2022/12/18 05:34:39;;;;;;;28.40;18.33;;;-4.40;99.90;-5.70;101849;;;;569940;248;25132;-71
2022/12/18 05:37:09;;;;;;;25.87;19.50;;;-4.40;99.90;-5.70;101855;;;;569904;248;24083;-71
2022/12/18 05:39:37;;;;;;;28.50;18.63;;;-4.40;99.90;-5.70;101861;;;;570324;248;24118;-72
2022/12/18 05:42:05;;;;;;;26.50;16.90;;;-4.40;99.90;-5.70;101861;;;;570018;248;24086;-73
2022/12/18 05:44:33;;;;;;;27.40;17.63;;;-4.50;99.90;-5.60;101879;;;;570119;248;24092;-75
2022/12/18 05:47:01;;;;;;;30.83;19.20;;;-4.40;99.90;-5.60;101885;;;;581406;243;24072;-72
2022/12/18 05:49:29;;;;;;;27.43;19.37;;;-4.40;99.90;-5.60;101884;;;;581827;243;24058;-75
2022/12/18 05:51:57;;;;;;;24.93;17.83;;;-4.40;99.90;-5.60;101883;;;;584910;243;24118;-72
2022/12/18 05:54:26;;;;;;;29.77;18.97;;;-4.40;99.90;-5.60;101884;;;;581063;243;24039;-72
2022/12/18 05:56:54;;;;;;;31.30;19.47;;;-4.40;99.90;-5.60;101888;;;;570660;248;24170;-72
2022/12/18 05:59:22;;;;;;;27.97;20.23;;;-4.40;99.90;-5.70;101886;;;;570951;248;24108;-71
2022/12/18 06:01:54;;;;;;;30.80;20.27;;;-4.40;99.90;-5.70;101889;;;;570179;248;24118;-79
2022/12/18 06:04:18;;;;;;;27.30;18.77;;;-4.40;99.90;-5.70;101884;;;;577847;249;24093;-73
2022/12/18 06:06:48;;;;;;;28.33;20.07;;;-4.40;99.90;-5.70;101894;;;;570274;248;24095;-74
2022/12/18 06:09:16;;;;;;;26.63;19.47;;;-4.40;99.90;-5.70;101898;;;;583782;243;24042;-73
2022/12/18 06:11:44;;;;;;;30.70;20.83;;;-4.50;99.90;-5.70;101904;;;;569716;248;24116;-81
2022/12/18 06:14:12;;;;;;;27.73;18.90;;;-4.50;99.90;-5.70;101905;;;;569516;248;24113;-74
2022/12/18 06:16:40;;;;;;;27.03;18.13;;;-4.50;99.90;-5.70;101904;;;;569456;248;24093;-78
2022/12/18 06:19:08;;;;;;;24.10;18.23;;;-4.50;99.90;-5.70;101904;;;;569381;248;24214;-77
2022/12/18 06:21:36;;;;;;;31.60;20.20;;;-4.50;99.90;-5.70;101913;;;;569752;248;24191;-72
2022/12/18 06:24:07;;;;;;;28.17;18.87;;;-4.50;99.90;-5.70;101907;;;;569547;248;24129;-71
2022/12/18 06:26:32;;;;;;;24.77;17.87;;;-4.50;99.90;-5.70;101908;;;;590268;243;24134;-71
2022/12/18 06:29:00;;;;;;;27.67;20.13;;;-4.50;99.90;-5.80;101916;;;;581433;243;24086;-73
2022/12/18 06:31:28;;;;;;;26.40;18.93;;;-4.50;99.90;-5.80;101917;;;;581576;243;24201;-72
2022/12/18 06:33:59;;;;;;;27.50;19.73;;;-4.50;99.90;-5.80;101916;;;;570398;248;24100;-74
2022/12/18 06:36:23;;;;;;;26.80;18.83;;;-4.60;99.90;-5.80;101928;;;;572476;242;24103;-75
2022/12/18 06:38:51;;;;;;;27.30;18.87;;;-4.60;99.90;-5.80;101928;;;;571797;248;25156;-76
2022/12/18 06:41:19;;;;;;;27.03;19.37;;;-4.60;99.90;-5.80;101938;;;;571241;248;24133;-71
2022/12/18 06:43:47;;;;;;;29.57;19.67;;;-4.60;99.90;-5.80;101946;;;;570853;248;24121;-72
2022/12/18 06:46:18;;;;;;;26.40;18.80;;;-4.50;99.90;-5.90;101949;;;;570027;248;24075;-71
2022/12/18 06:48:50;;;;;;;27.27;18.43;;;-4.60;99.90;-5.90;101962;;;;581361;243;24057;-75
2022/12/18 06:51:20;;;;;;;27.23;18.30;;;-4.60;99.90;-5.90;101951;;;;582455;243;24077;-71
2022/12/18 06:53:48;;;;;;;26.87;18.17;;;-4.60;99.90;-5.90;101953;;;;580357;248;24233;-72
2022/12/18 06:56:16;;;;;;;24.03;17.43;;;-4.60;99.90;-5.90;101952;;;;571527;248;24086;-79
2022/12/18 06:58:44;;;;;;;25.13;18.10;;;-4.60;99.90;-5.90;101950;;;;581629;243;25094;-77
2022/12/18 07:01:12;;;;;;;23.10;17.57;;;-4.60;99.90;-5.90;101954;;;;581635;243;24043;-77
2022/12/18 07:03:40;;;;;;;23.27;16.90;;;-4.60;99.90;-5.90;101966;;;;570989;248;24089;-72
2022/12/18 07:06:08;;;;;;;24.03;17.63;;;-4.60;99.90;-5.80;101954;;;;581183;243;24162;-71
2022/12/18 07:08:36;;;;;;;22.93;16.90;;;-4.60;99.90;-5.80;101974;;;;570143;248;24144;-76
2022/12/18 07:11:04;;;;;;;25.00;16.93;;;-4.50;99.90;-5.80;101971;;;;570786;248;24089;-72
2022/12/18 07:13:32;;;;;;;23.03;16.67;;;-4.60;99.90;-5.80;101974;;;;578031;249;24109;-70
2022/12/18 07:16:09;;;;;;;23.73;16.97;;;-4.50;99.90;-5.70;101981;;;;570867;248;24091;-72
2022/12/18 07:18:37;;;;;;;22.80;16.17;;;-4.50;99.90;-5.70;101985;;;;581525;243;24082;-74
2022/12/18 07:21:05;;;;;;;26.07;17.33;;;-4.50;99.90;-5.70;101992;;;;581572;243;24166;-72
2022/12/18 07:23:33;;;;;;;24.13;17.37;;;-4.50;99.90;-5.60;101996;;;;570227;248;24108;-75
2022/12/18 07:26:10;;;;;;;24.27;16.13;;;-4.40;99.90;-5.60;101995;;;;574933;250;24113;-72
2022/12/18 07:28:40;;;;;;;20.93;16.53;;;-4.40;99.90;-5.60;101991;;;;580715;247;24088;-73
2022/12/18 07:31:06;;;;;;;23.10;16.13;;;-4.40;99.90;-5.60;101992;;;;570710;248;24103;-72
2022/12/18 07:33:37;;;;;;;24.27;16.47;;;-4.40;99.90;-5.60;101999;;;;581738;243;24060;-80
2022/12/18 07:36:04;;;;;;;21.40;14.73;;;-4.40;99.90;-5.60;101994;;;;581217;243;24082;-79
2022/12/18 07:38:32;;;;;;;19.20;14.50;;;-4.40;99.90;-5.60;101997;;;;569194;249;24097;-82
2022/12/18 07:41:06;;;;;;;17.37;13.83;;;-4.30;99.90;-5.60;101998;;;;570014;248;24103;-71
2022/12/18 07:43:37;;;;;;;16.93;13.60;;;-4.30;99.90;-5.50;102005;;;;569548;248;24103;-71
2022/12/18 07:46:02;;;;;;;20.73;14.73;;;-4.30;99.90;-5.50;102014;;;;580483;241;24095;-71
2022/12/18 07:48:33;;;;;;;15.03;13.00;;;-4.30;99.90;-5.50;102024;;;;581868;243;24102;-72
2022/12/18 07:51:00;;;;;;;18.37;14.27;;;-4.30;99.90;-5.40;102028;;;;579152;248;24176;-72
2022/12/18 07:53:28;;;;;;;16.57;12.73;;;-4.20;99.90;-5.40;102026;;;;579351;248;24170;-70
2022/12/18 07:56:02;;;;;;;17.57;11.93;;;-4.20;99.90;-5.30;102024;;;;578346;243;24025;-70
2022/12/18 07:58:30;;;;;;;13.17;11.00;;;-4.10;99.90;-5.30;102018;;;;570102;248;24107;-70
2022/12/18 08:01:04;;;;;;;15.97;11.80;;;-4.10;99.90;-5.20;102010;;;;581189;243;24055;-70
2022/12/18 08:03:35;;;;;;;16.80;11.07;;;-4.00;99.90;-5.10;102012;;;;589655;243;24077;-70
2022/12/18 08:06:00;;;;;;;12.43;10.27;;;-3.90;99.90;-5.10;102017;;;;570630;248;24138;-72
2022/12/18 08:08:32;;;;;;;11.50;9.47;;;-3.80;99.90;-5.00;102024;;;;568996;249;24126;-72
2022/12/18 08:11:00;;;;;;;12.67;9.30;;;-3.80;99.90;-5.00;102019;;;;580895;243;24087;-70
2022/12/18 08:13:24;;;;;;;15.07;10.07;;;-3.80;99.90;-4.90;102029;;;;569708;248;24145;-71
2022/12/18 08:16:01;;;;;;;12.80;10.27;;;-3.70;99.90;-4.80;102037;;;;581250;243;24126;-71
2022/12/18 08:18:33;;;;;;;14.03;10.17;;;-3.60;99.90;-4.80;102032;;;;580682;243;24144;-71
2022/12/18 08:20:58;;;;;;;11.23;9.33;;;-3.60;99.90;-4.70;102036;;;;569046;249;24102;-72
2022/12/18 08:23:26;;;;;;;12.53;9.30;;;-3.50;99.90;-4.60;102039;;;;581436;243;24166;-74
2022/12/18 08:25:54;;;;;;;12.17;8.97;;;-3.40;99.90;-4.60;102035;;;;569455;248;24184;-71
2022/12/18 08:28:22;;;;;;;11.33;9.33;;;-3.40;99.90;-4.50;102038;;;;581605;242;24080;-71
2022/12/18 08:30:54;;;;;;;13.23;10.30;;;-3.30;99.90;-4.50;102043;;;;570585;248;24143;-73
2022/12/18 08:33:22;;;;;;;11.40;9.20;;;-3.30;99.90;-4.40;102042;;;;581047;243;24071;-74
2022/12/18 08:35:50;;;;;;;13.70;9.70;;;-3.20;99.90;-4.30;102042;;;;570151;248;24117;-71
2022/12/18 08:38:23;;;;;;;13.37;10.23;;;-3.20;99.90;-4.30;102038;;;;581255;243;24087;-72
2022/12/18 08:40:47;;;;;;;14.43;9.80;;;-3.10;99.90;-4.20;102039;;;;576907;243;24042;-71
2022/12/18 08:46:01;;;;;;;13.07;9.57;;;-3.00;99.90;-4.10;102031;;;;569089;248;24124;-71
2022/12/18 08:48:29;;;;;;;13.27;9.20;;;-2.90;99.90;-4.10;102041;;;;580130;243;24072;-72
2022/12/18 08:50:57;;;;;;;13.40;9.60;;;-2.90;99.90;-4.10;102045;;;;569087;248;24114;-71
2022/12/18 08:53:31;;;;;;;12.50;8.87;;;-2.90;99.90;-4.00;102040;;;;588877;243;24046;-72
2022/12/18 08:55:56;;;;;;;13.77;8.60;;;-2.90;99.90;-4.00;102050;;;;568953;248;24127;-71
2022/12/18 08:58:23;;;;;;;13.43;9.37;;;-2.80;99.90;-4.00;102046;;;;571163;247;24105;-72
2022/12/18 09:00:51;;;;;;;12.80;8.77;;;-2.80;99.90;-3.90;102045;;;;571573;248;24128;-72
2022/12/18 09:03:22;;;;;;;14.90;8.60;;;-2.70;99.90;-3.90;102041;;;;581545;243;24056;-78
2022/12/18 09:21:14;;;;;;;11.33;8.10;;;-2.40;99.90;-3.60;102054;;;;617254;228;33517;-80
2022/12/18 09:23:42;;;;;;;11.77;8.27;;;-2.40;99.90;-3.50;102061;;;;606028;237;24037;-81
2022/12/18 09:26:11;;;;;;;14.83;9.13;;;-2.30;99.90;-3.50;102054;;;;606658;236;24057;-81
2022/12/18 09:28:39;;;;;;;10.27;7.73;;;-2.30;99.90;-3.50;102061;;;;606472;236;24060;-80
2022/12/18 09:31:07;;;;;;;11.53;8.40;;;-2.30;99.90;-3.50;102071;;;;606316;233;24050;-81
2022/12/18 09:33:36;;;;;;;13.10;8.87;;;-2.30;99.90;-3.50;102076;;;;606281;236;24057;-80
2022/12/18 09:36:03;;;;;;;13.70;9.27;;;-2.20;99.90;-3.40;102065;;;;606215;237;24112;-80
2022/12/18 09:38:31;;;;;;;13.07;8.63;;;-2.20;99.90;-3.40;102065;;;;606079;236;24041;-81
2022/12/18 09:41:06;;;;;;;13.80;9.50;;;-2.20;99.90;-3.40;102063;;;;606007;233;24062;-83
2022/12/18 09:43:42;;;;;;;13.50;10.20;;;-2.20;99.90;-3.40;102070;;;;583543;237;24055;-80
2022/12/18 09:46:09;;;;;;;14.30;9.70;;;-2.20;99.90;-3.30;102076;;;;605395;237;24096;-81
2022/12/18 09:48:37;;;;;;;14.57;8.63;;;-2.20;99.90;-3.40;102078;;;;605843;237;24088;-81
2022/12/18 09:51:17;;;;;;;13.93;9.03;;;-2.20;99.90;-3.30;102077;;;;605184;237;24029;-79
2022/12/18 09:53:51;;;;;;;11.07;8.67;;;-2.20;99.90;-3.30;102079;;;;604335;237;24087;-80
2022/12/18 09:56:22;;;;;;;13.50;8.60;;;-2.20;99.90;-3.30;102074;;;;605677;237;25087;-81
2022/12/18 09:58:50;;;;;;;13.00;8.90;;;-2.20;99.90;-3.30;102081;;;;605453;233;24087;-80
2022/12/18 10:01:20;;;;;;;14.00;9.13;;;-2.20;99.90;-3.30;102077;;;;604964;237;24034;-81
2022/12/18 10:03:52;;;;;;;13.73;8.80;;;-2.20;99.90;-3.30;102072;;;;604975;237;25083;-80
2022/12/18 10:17:53;;;;;;;14.27;9.73;;;-2.00;99.90;-3.10;102078;;;;629008;228;33629;-80
2022/12/18 10:20:42;;;;;;;16.27;10.93;;;-2.00;99.90;-3.10;102079;;;;617810;232;24008;-82
2022/12/18 10:23:31;;;;;;;14.63;10.57;;;-2.00;99.90;-3.10;102076;;;;618546;232;24012;-79
2022/12/18 10:26:08;;;;;;;15.67;10.77;;;-1.90;99.90;-3.10;102080;;;;618212;232;24051;-81
2022/12/18 10:28:38;;;;;;;18.00;10.97;;;-1.90;99.90;-3.10;102098;;;;618097;232;25087;-80
2022/12/18 10:31:06;;;;;;;15.97;9.87;;;-1.90;99.90;-3.10;102101;;;;618343;232;24109;-80
2022/12/18 10:33:34;;;;;;;15.43;9.83;;;-1.90;99.90;-3.10;102081;;;;618102;232;24043;-81
2022/12/18 10:36:02;;;;;;;15.07;9.37;;;-1.90;99.90;-3.00;102084;;;;617902;232;24081;-81
2022/12/18 10:38:31;;;;;;;13.67;10.13;;;-1.90;99.90;-3.00;102083;;;;617800;232;24035;-81
2022/12/18 10:41:11;;;;;;;15.23;10.10;;;-1.90;99.90;-3.00;102094;;;;617875;232;24057;-81
2022/12/18 10:43:41;;;;;;;15.17;10.07;;;-1.90;99.90;-3.00;102088;;;;616206;232;24055;-81
2022/12/18 10:46:09;;;;;;;14.57;10.30;;;-1.80;99.90;-3.00;102091;;;;617591;232;24052;-81
2022/12/18 10:48:40;;;;;;;12.37;9.13;;;-1.80;99.90;-2.90;102091;;;;618012;232;24180;-81
2022/12/18 10:51:10;;;;;;;15.10;9.47;;;-1.80;99.90;-2.90;102096;;;;617958;232;24068;-80
2022/12/18 10:53:35;;;;;;;15.80;9.47;;;-1.80;99.90;-2.90;102093;;;;617427;232;24110;-81
2022/12/18 10:56:03;;;;;;;13.57;9.07;;;-1.80;99.90;-2.90;102086;;;;617626;232;24022;-81
2022/12/18 10:58:37;;;;;;;14.83;9.80;;;-1.80;99.90;-2.90;102082;;;;617655;232;24032;-81
2022/12/18 11:01:20;;;;;;;17.93;9.73;;;-1.80;99.90;-2.90;102081;;;;617705;232;24012;-81
2022/12/18 11:03:45;;;;;;;15.90;9.40;;;-1.80;99.90;-2.90;102079;;;;617502;232;24036;-80
2022/12/18 11:06:19;;;;;;;16.47;9.90;;;-1.80;99.90;-2.90;102084;;;;617444;232;24041;-80
2022/12/18 11:08:58;;;;;;;14.10;9.40;;;-1.80;99.90;-2.90;102085;;;;611344;232;24092;-81
2022/12/18 11:11:26;;;;;;;14.43;9.47;;;-1.80;99.90;-2.90;102089;;;;608070;236;24046;-81
2022/12/18 11:14:06;;;;;;;13.60;9.20;;;-1.70;99.90;-2.90;102086;;;;608118;236;24100;-81
2022/12/18 11:16:45;;;;;;;16.53;9.40;;;-1.70;99.90;-2.80;102095;;;;608044;236;24032;-82
2022/12/18 11:19:38;;;;;;;12.13;8.23;;;-1.70;99.90;-2.80;102102;;;;608145;236;24041;-80
2022/12/18 11:22:18;;;;;;;14.37;9.47;;;-1.70;99.90;-2.80;102096;;;;607961;236;24043;-81
2022/12/18 11:24:45;;;;;;;13.80;9.00;;;-1.70;99.90;-2.80;102097;;;;581482;245;24110;-81
2022/12/18 11:27:16;;;;;;;15.50;9.80;;;-1.70;99.90;-2.80;102098;;;;581617;245;24082;-80
2022/12/18 11:29:47;;;;;;;12.63;9.27;;;-1.70;99.90;-2.80;102096;;;;593839;241;24086;-81
2022/12/18 11:32:33;;;;;;;16.07;9.83;;;-1.70;99.90;-2.70;102099;;;;581125;247;24108;-81
2022/12/18 11:35:18;;;;;;;12.43;8.53;;;-1.60;99.90;-2.70;102089;;;;584683;245;24137;-82
2022/12/18 11:37:47;;;;;;;12.37;8.03;;;-1.60;99.90;-2.70;102093;;;;574851;245;24103;-80
2022/12/18 11:40:17;;;;;;;12.97;8.37;;;-1.60;99.90;-2.70;102101;;;;581427;246;24078;-81
2022/12/18 11:42:51;;;;;;;12.60;8.03;;;-1.60;99.90;-2.70;102105;;;;582077;246;24101;-81